createdAt,value
2017-09-20T14:53:05.458Z,86.48
2017-09-20T14:53:18.325Z,86.29
2017-09-20T14:53:31.701Z,85.51
2017-09-20T14:53:44.565Z,85.61
2017-09-20T14:53:57.895Z,85.8
2017-09-20T14:54:10.738Z,85.71
2017-09-20T14:54:24.139Z,85.8
2017-09-20T14:54:38.181Z,85.31
2017-09-20T14:54:51.523Z,85.36
2017-09-20T14:55:04.359Z,84.97
2017-09-20T14:55:17.748Z,85.07
2017-09-20T14:55:30.580Z,84.39
2017-09-20T14:55:43.964Z,84
2017-09-20T14:55:56.774Z,83.48
2017-09-20T14:56:09.140Z,84
2017-09-20T14:56:22.029Z,83.91
2017-09-20T14:56:35.445Z,83.86
2017-09-20T14:56:48.877Z,84.06
2017-09-20T14:57:01.735Z,84.06
2017-09-20T14:57:14.528Z,84.3
2017-09-20T14:57:27.424Z,84.74
2017-09-20T14:57:39.717Z,84.45
2017-09-20T14:57:53.108Z,84.55
2017-09-20T14:58:05.924Z,84.64
2017-09-20T14:58:18.754Z,84.64
2017-09-20T14:58:30.559Z,84.25
2017-09-20T14:58:43.412Z,84.3
2017-09-20T14:58:56.783Z,84.49
2017-09-20T14:59:09.659Z,84.16
2017-09-20T14:59:22.019Z,83.86
2017-09-20T14:59:34.845Z,84.1
2017-09-20T14:59:48.210Z,83.62
2017-09-20T15:00:01.621Z,83.42
2017-09-20T15:00:14.479Z,83.13
2017-09-20T15:00:27.913Z,83.33
2017-09-20T15:00:40.258Z,83.33
2017-09-20T15:00:53.583Z,83.13
2017-09-20T15:01:06.436Z,83.91
2017-09-20T15:01:19.829Z,83.81
2017-09-20T15:01:32.674Z,82.94
2017-09-20T15:01:45.537Z,83.03
2017-09-20T15:01:58.878Z,83.33
2017-09-20T15:02:11.691Z,83.42
2017-09-20T15:02:23.494Z,82.94
2017-09-20T15:02:36.366Z,83.23
2017-09-20T15:02:49.764Z,83.33
2017-09-20T15:03:03.142Z,83.03
2017-09-20T15:03:15.968Z,83.42
2017-09-20T15:03:29.315Z,82.84
2017-09-20T15:03:42.705Z,82.45
2017-09-20T15:03:56.060Z,82.35
2017-09-20T15:04:08.388Z,82.35
2017-09-20T15:04:21.807Z,82.17
2017-09-20T15:04:34.662Z,82.35
2017-09-20T15:04:46.960Z,82.84
2017-09-20T15:04:59.812Z,82.65
2017-09-20T15:05:12.709Z,82.55
2017-09-20T15:05:26.090Z,83.13
2017-09-20T15:05:39.522Z,82.94
2017-09-20T15:05:52.365Z,83.13
2017-09-20T15:06:05.215Z,83.42
2017-09-20T15:06:18.100Z,83.52
2017-09-20T15:06:30.944Z,83.72
2017-09-20T15:06:44.392Z,84.1
2017-09-20T15:06:57.272Z,84.2
2017-09-20T15:07:10.117Z,84.1
2017-09-20T15:07:23.530Z,83.91
2017-09-20T15:07:36.375Z,83.65
2017-09-20T15:07:48.718Z,83.56
2017-09-20T15:08:01.570Z,83.52
2017-09-20T15:08:13.881Z,83.75
2017-09-20T15:08:27.283Z,83.62
2017-09-20T15:08:40.096Z,83.13
2017-09-20T15:08:53.498Z,83.33
2017-09-20T15:09:05.312Z,82.84
2017-09-20T15:09:18.232Z,82.65
2017-09-20T15:09:31.601Z,82.35
2017-09-20T15:09:44.496Z,82.07
2017-09-20T15:09:57.367Z,82.45
2017-09-20T15:10:09.683Z,82.17
2017-09-20T15:10:22.596Z,82.55
2017-09-20T15:10:36.098Z,82.55
2017-09-20T15:10:49.468Z,82.75
2017-09-20T15:11:02.837Z,83.13
2017-09-20T15:11:15.750Z,83.03
2017-09-20T15:11:28.590Z,83.42
2017-09-20T15:11:41.950Z,83.03
2017-09-20T15:11:54.272Z,83.72
2017-09-20T15:12:06.049Z,83.62
2017-09-20T15:12:18.889Z,83.42
2017-09-20T15:12:32.301Z,83.23
2017-09-20T15:12:44.597Z,83.91
2017-09-20T15:12:57.475Z,83.52
2017-09-20T15:13:09.796Z,83.91
2017-09-20T15:13:22.629Z,84
2017-09-20T15:13:35.427Z,84
2017-09-20T15:13:48.289Z,83.23
2017-09-20T15:14:00.578Z,82.55
2017-09-20T15:14:12.381Z,81.97
2017-09-20T15:14:25.783Z,81.97
2017-09-20T15:14:39.201Z,82.07
2017-09-20T15:14:52.550Z,81.77
2017-09-20T15:15:05.355Z,82.01
2017-09-20T15:15:18.361Z,81.62
2017-09-20T15:15:31.194Z,81.23
2017-09-20T15:15:44.059Z,81.52
2017-09-20T15:15:57.476Z,81.33
2017-09-20T15:16:09.776Z,80.94
2017-09-20T15:16:22.605Z,81.13
2017-09-20T15:16:35.941Z,81.23
2017-09-20T15:16:49.384Z,81.33
2017-09-20T15:17:02.293Z,81.43
2017-09-20T15:17:17.049Z,81.52
2017-09-20T15:17:29.891Z,81.43
2017-09-20T15:17:42.761Z,81.82
2017-09-20T15:17:56.168Z,81.62
2017-09-20T15:18:08.489Z,82.01
2017-09-20T15:18:21.859Z,81.72
2017-09-20T15:18:34.200Z,81.72
2017-09-20T15:18:47.006Z,82.1
2017-09-20T15:19:00.390Z,81.91
2017-09-20T15:19:12.649Z,82.2
2017-09-20T15:19:25.554Z,82.17
2017-09-20T15:19:38.971Z,82.1
2017-09-20T15:19:51.817Z,82.69
2017-09-20T15:20:04.642Z,82.88
2017-09-20T15:20:18.081Z,83.07
2017-09-20T15:20:29.911Z,83.37
2017-09-20T15:20:43.511Z,83.37
2017-09-20T15:20:56.894Z,83.95
2017-09-20T15:21:09.194Z,83.47
2017-09-20T15:21:22.587Z,83.75
2017-09-20T15:21:35.941Z,83.65
2017-09-20T15:21:48.788Z,83.85
2017-09-20T15:22:02.213Z,83.47
2017-09-20T15:22:15.555Z,83.65
2017-09-20T15:22:28.433Z,83.85
2017-09-20T15:22:41.855Z,84.05
2017-09-20T15:22:54.724Z,83.85
2017-09-20T15:23:07.514Z,83.85
2017-09-20T15:23:20.869Z,83.95
2017-09-20T15:23:34.243Z,83.95
2017-09-20T15:23:46.549Z,83.95
2017-09-20T15:23:59.956Z,84.34
2017-09-20T15:24:12.799Z,84.34
2017-09-20T15:24:25.677Z,84.43
2017-09-20T15:24:38.515Z,84.05
2017-09-20T15:24:51.356Z,83.37
2017-09-20T15:25:04.752Z,82.3
2017-09-20T15:25:18.110Z,82.2
2017-09-20T15:25:31.543Z,82.01
2017-09-20T15:25:45.136Z,82.4
2017-09-20T15:25:58.473Z,82.2
2017-09-20T15:26:11.873Z,82.2
2017-09-20T15:26:25.278Z,81.33
2017-09-20T15:26:38.716Z,80.75
2017-09-20T15:26:51.614Z,79.88
2017-09-20T15:27:04.459Z,80.07
2017-09-20T15:27:17.843Z,80.17
2017-09-20T15:27:30.690Z,79.97
2017-09-20T15:27:43.555Z,80.07
2017-09-20T15:27:57.016Z,80.46
2017-09-20T15:28:09.361Z,80.75
2017-09-20T15:28:22.742Z,80.55
2017-09-20T15:28:35.548Z,80.55
2017-09-20T15:28:48.383Z,80.17
2017-09-20T15:29:01.225Z,80.17
2017-09-20T15:29:14.093Z,80.26
2017-09-20T15:29:27.410Z,80.26
2017-09-20T15:29:38.711Z,80.85
2017-09-20T15:29:51.558Z,80.85
2017-09-20T15:30:03.889Z,80.65
2017-09-20T15:30:17.240Z,81.72
2017-09-20T15:30:30.615Z,82.3
2017-09-20T15:30:44.022Z,82.5
2017-09-20T15:30:56.865Z,82.88
2017-09-20T15:31:10.247Z,82.78
2017-09-20T15:31:23.628Z,82.98
2017-09-20T15:31:37.035Z,82.88
2017-09-20T15:31:50.345Z,83.85
2017-09-20T15:32:03.176Z,83.75
2017-09-20T15:32:15.516Z,83.47
2017-09-20T15:32:27.861Z,83.47
2017-09-20T15:32:40.712Z,83.27
2017-09-20T15:32:54.145Z,83.47
2017-09-20T15:33:07.493Z,83.85
2017-09-20T15:33:20.838Z,83.47
2017-09-20T15:33:33.690Z,84.14
2017-09-20T15:33:47.080Z,83.95
2017-09-20T15:34:00.432Z,84.43
2017-09-20T15:34:13.313Z,83.95
2017-09-20T15:34:26.161Z,83.75
2017-09-20T15:34:38.476Z,83.56
2017-09-20T15:34:51.334Z,82.88
2017-09-20T15:35:04.213Z,83.17
2017-09-20T15:35:17.620Z,83.65
2017-09-20T15:35:30.452Z,83.07
2017-09-20T15:35:42.818Z,83.65
2017-09-20T15:35:55.747Z,83.75
2017-09-20T15:36:08.596Z,83.27
2017-09-20T15:36:20.928Z,83.27
2017-09-20T15:36:34.289Z,83.17
2017-09-20T15:36:47.610Z,82.55
2017-09-20T15:37:00.438Z,82.69
2017-09-20T15:37:13.818Z,82.4
2017-09-20T15:37:26.723Z,82.4
2017-09-20T15:37:39.593Z,82.55
2017-09-20T15:37:52.956Z,82.17
2017-09-20T15:38:05.274Z,82.01
2017-09-20T15:38:17.582Z,82.45
2017-09-20T15:38:30.418Z,82.84
2017-09-20T15:38:43.784Z,83.03
2017-09-20T15:38:56.608Z,82.84
2017-09-20T15:39:08.888Z,82.84
2017-09-20T15:39:22.254Z,82.55
2017-09-20T15:39:35.086Z,82.84
2017-09-20T15:39:47.962Z,82.65
2017-09-20T15:40:00.855Z,82.55
2017-09-20T15:40:13.246Z,82.94
2017-09-20T15:40:26.612Z,83.33
2017-09-20T15:40:39.967Z,83.52
2017-09-20T15:40:52.819Z,84
2017-09-20T15:41:05.664Z,83.33
2017-09-20T15:41:18.522Z,83.23
2017-09-20T15:41:31.974Z,82.84
2017-09-20T15:41:44.814Z,82.65
2017-09-20T15:41:58.150Z,82.98
2017-09-20T15:42:11.578Z,82.3
2017-09-20T15:42:24.466Z,82.1
2017-09-20T15:42:37.820Z,82.4
2017-09-20T15:42:51.232Z,82.01
2017-09-20T15:43:03.541Z,81.72
2017-09-20T15:43:15.893Z,82.1
2017-09-20T15:43:29.265Z,82.1
2017-09-20T15:43:41.551Z,81.52
2017-09-20T15:43:54.410Z,82.01
2017-09-20T15:44:06.725Z,81.82
2017-09-20T15:44:19.558Z,81.43
2017-09-20T15:44:32.935Z,82.1
2017-09-20T15:44:45.794Z,82.1
2017-09-20T15:44:59.104Z,82.1
2017-09-20T15:45:11.977Z,82.4
2017-09-20T15:45:25.376Z,82.69
2017-09-20T15:45:38.730Z,82.98
2017-09-20T15:45:52.132Z,83.17
2017-09-20T15:46:05.595Z,83.65
2017-09-20T15:46:17.944Z,83.65
2017-09-20T15:46:31.294Z,83.27
2017-09-20T15:46:43.662Z,82.78
2017-09-20T15:46:56.006Z,82.78
2017-09-20T15:47:09.402Z,82.5
2017-09-20T15:47:22.223Z,82.59
2017-09-20T15:47:35.607Z,82.2
2017-09-20T15:47:49.030Z,83.07
2017-09-20T15:48:01.319Z,82.78
2017-09-20T15:48:13.102Z,82.2
2017-09-20T15:48:25.975Z,82.4
2017-09-20T15:48:38.843Z,82.3
2017-09-20T15:48:50.645Z,81.82
2017-09-20T15:49:03.963Z,82.2
2017-09-20T15:49:17.359Z,82.59
2017-09-20T15:49:30.757Z,82.59
2017-09-20T15:49:43.656Z,81.43
2017-09-20T15:49:56.509Z,81.87
2017-09-20T15:50:09.855Z,82.35
2017-09-20T15:50:23.201Z,82.55
2017-09-20T15:50:36.632Z,83.03
2017-09-20T15:50:49.469Z,83.23
2017-09-20T15:51:02.915Z,83.62
2017-09-20T15:51:16.326Z,82.84
2017-09-20T15:51:29.695Z,83.65
2017-09-20T15:51:42.575Z,83.27
2017-09-20T15:51:55.904Z,82.98
2017-09-20T15:52:08.773Z,82.98
2017-09-20T15:52:22.191Z,82.2
2017-09-20T15:52:35.628Z,82.01
2017-09-20T15:52:48.991Z,82.01
2017-09-20T15:53:01.280Z,82.01
2017-09-20T15:53:14.654Z,81.91
2017-09-20T15:53:27.452Z,81.62
2017-09-20T15:53:40.267Z,81.91
2017-09-20T15:53:53.160Z,81.82
2017-09-20T15:54:06.036Z,81.82
2017-09-20T15:54:18.913Z,82.4
2017-09-20T15:54:32.262Z,81.91
2017-09-20T15:54:45.716Z,81.82
2017-09-20T15:54:59.176Z,82.2
2017-09-20T15:55:12.008Z,82.59
2017-09-20T15:55:25.358Z,82.5
2017-09-20T15:55:38.750Z,82.59
2017-09-20T15:55:51.597Z,82.78
2017-09-20T15:56:05.015Z,82.98
2017-09-20T15:56:17.900Z,82.59
2017-09-20T15:56:30.753Z,82.3
2017-09-20T15:56:44.152Z,82.78
2017-09-20T15:56:57.530Z,82.59
2017-09-20T15:57:10.926Z,82.5
2017-09-20T15:57:23.720Z,82.78
2017-09-20T15:57:36.572Z,82.88
2017-09-20T15:57:48.925Z,83.37
2017-09-20T15:58:01.256Z,82.98
2017-09-20T15:58:14.554Z,83.27
2017-09-20T15:58:28.126Z,83.17
2017-09-20T15:58:41.553Z,83.17
2017-09-20T15:58:54.433Z,83.07
2017-09-20T15:59:06.799Z,82.69
2017-09-20T15:59:20.187Z,82.4
2017-09-20T15:59:33.083Z,82.1
2017-09-20T15:59:45.438Z,81.82
2017-09-20T15:59:58.832Z,81.76
2017-09-20T16:00:11.685Z,81.66
2017-09-20T16:00:24.548Z,82.05
2017-09-20T16:00:37.977Z,81.47
2017-09-20T16:00:50.814Z,81.66
2017-09-20T16:01:03.717Z,81.57
2017-09-20T16:01:17.103Z,81.62
2017-09-20T16:01:30.551Z,82.34
2017-09-20T16:01:43.964Z,81.72
2017-09-20T16:01:56.834Z,81.76
2017-09-20T16:02:10.196Z,81.43
2017-09-20T16:02:22.489Z,81.47
2017-09-20T16:02:35.821Z,81.85
2017-09-20T16:02:49.205Z,82.34
2017-09-20T16:03:01.496Z,81.66
2017-09-20T16:03:14.961Z,82.24
2017-09-20T16:03:27.271Z,82.1
2017-09-20T16:03:40.651Z,81.66
2017-09-20T16:03:54.056Z,81.76
2017-09-20T16:04:06.899Z,82.05
2017-09-20T16:04:20.244Z,81.85
2017-09-20T16:04:33.636Z,82.63
2017-09-20T16:04:46.023Z,83.12
2017-09-20T16:04:59.400Z,81.95
2017-09-20T16:05:12.206Z,81.66
2017-09-20T16:05:25.580Z,81.66
2017-09-20T16:05:38.974Z,81.18
2017-09-20T16:05:50.757Z,81.08
2017-09-20T16:06:03.743Z,81.57
2017-09-20T16:06:16.125Z,81.85
2017-09-20T16:06:29.513Z,81.37
2017-09-20T16:06:42.377Z,81.95
2017-09-20T16:06:55.705Z,81.47
2017-09-20T16:07:08.554Z,81.57
2017-09-20T16:07:21.450Z,81.37
2017-09-20T16:07:34.312Z,81.08
2017-09-20T16:07:47.165Z,80.69
2017-09-20T16:08:00.535Z,81.18
2017-09-20T16:08:12.867Z,81.47
2017-09-20T16:08:25.691Z,81.95
2017-09-20T16:08:39.074Z,81.76
2017-09-20T16:08:51.948Z,81.95
2017-09-20T16:09:03.711Z,80.98
2017-09-20T16:09:16.020Z,81.47
2017-09-20T16:09:28.902Z,81.37
2017-09-20T16:09:42.233Z,81.08
2017-09-20T16:09:55.106Z,81.37
2017-09-20T16:10:08.439Z,81.27
2017-09-20T16:10:21.293Z,81.85
2017-09-20T16:10:34.162Z,81.66
2017-09-20T16:10:46.998Z,81.18
2017-09-20T16:10:59.866Z,80.98
2017-09-20T16:11:12.208Z,80.98
2017-09-20T16:11:25.655Z,80.98
2017-09-20T16:11:39.023Z,80.4
2017-09-20T16:11:51.910Z,80.88
2017-09-20T16:12:03.650Z,80.88
2017-09-20T16:12:16.042Z,80.98
2017-09-20T16:12:28.351Z,80.69
2017-09-20T16:12:41.724Z,80.98
2017-09-20T16:12:54.535Z,80.79
2017-09-20T16:13:08.752Z,81.18
2017-09-20T16:13:21.611Z,80.98
2017-09-20T16:13:34.626Z,81.37
2017-09-20T16:13:46.956Z,81.08
2017-09-20T16:13:59.813Z,81.18
2017-09-20T16:14:12.709Z,81.37
2017-09-20T16:14:25.044Z,80.88
2017-09-20T16:14:37.793Z,80.11
2017-09-20T16:14:51.141Z,79.82
2017-09-20T16:15:05.952Z,79.82
2017-09-20T16:15:18.840Z,80.11
2017-09-20T16:15:31.713Z,79.82
2017-09-20T16:15:44.561Z,80.4
2017-09-20T16:15:57.930Z,79.91
2017-09-20T16:16:10.756Z,80.01
2017-09-20T16:16:24.118Z,80.21
2017-09-20T16:16:36.400Z,80.11
2017-09-20T16:16:49.778Z,79.72
2017-09-20T16:17:02.136Z,79.63
2017-09-20T16:17:15.044Z,79.91
2017-09-20T16:17:28.306Z,79.63
2017-09-20T16:17:41.681Z,79.53
2017-09-20T16:17:54.514Z,79.63
2017-09-20T16:18:07.859Z,80.11
2017-09-20T16:18:20.167Z,79.91
2017-09-20T16:18:32.654Z,80.11
2017-09-20T16:18:45.037Z,80.5
2017-09-20T16:18:58.419Z,80.88
2017-09-20T16:19:11.250Z,79.91
2017-09-20T16:19:24.109Z,80.21
2017-09-20T16:19:37.479Z,80.07
2017-09-20T16:19:50.406Z,79.91
2017-09-20T16:20:03.850Z,80.07
2017-09-20T16:20:17.242Z,80.17
2017-09-20T16:20:30.068Z,79.43
2017-09-20T16:20:42.888Z,79.72
2017-09-20T16:20:56.292Z,79.68
2017-09-20T16:21:09.354Z,79.78
2017-09-20T16:21:22.809Z,79.88
2017-09-20T16:21:35.625Z,80.17
2017-09-20T16:21:48.986Z,79.68
2017-09-20T16:22:02.355Z,79.68
2017-09-20T16:22:14.143Z,79.97
2017-09-20T16:22:26.488Z,80.55
2017-09-20T16:22:39.868Z,80.65
2017-09-20T16:22:53.221Z,81.04
2017-09-20T16:23:06.609Z,80.46
2017-09-20T16:23:20.016Z,80.65
2017-09-20T16:23:33.414Z,79.78
2017-09-20T16:23:46.821Z,79.39
2017-09-20T16:23:59.679Z,79.58
2017-09-20T16:24:13.062Z,79.49
2017-09-20T16:24:25.938Z,80.26
2017-09-20T16:24:39.347Z,79.58
2017-09-20T16:24:52.784Z,79.78
2017-09-20T16:25:05.638Z,79.78
2017-09-20T16:25:18.453Z,79.58
2017-09-20T16:25:31.325Z,79.68
2017-09-20T16:25:44.696Z,80.07
2017-09-20T16:25:58.014Z,79.49
2017-09-20T16:26:11.425Z,79.1
2017-09-20T16:26:24.765Z,79.78
2017-09-20T16:26:38.126Z,79.88
2017-09-20T16:26:51.554Z,79.97
2017-09-20T16:27:04.398Z,79.97
2017-09-20T16:27:17.785Z,79.88
2017-09-20T16:27:31.131Z,80.07
2017-09-20T16:27:43.502Z,79.88
2017-09-20T16:27:56.870Z,80.46
2017-09-20T16:28:10.287Z,80.75
2017-09-20T16:28:23.187Z,80.65
2017-09-20T16:28:36.052Z,80.46
2017-09-20T16:28:48.970Z,80.98
2017-09-20T16:29:02.442Z,80.11
2017-09-20T16:29:15.850Z,79.58
2017-09-20T16:29:29.185Z,79.63
2017-09-20T16:29:42.588Z,79.78
2017-09-20T16:29:55.451Z,79.68
2017-09-20T16:30:08.334Z,79.43
2017-09-20T16:30:20.676Z,79.53
2017-09-20T16:30:32.472Z,79.53
2017-09-20T16:30:45.267Z,78.66
2017-09-20T16:30:58.572Z,78.56
2017-09-20T16:31:11.419Z,78.71
2017-09-20T16:31:23.763Z,78.85
2017-09-20T16:31:36.632Z,78.75
2017-09-20T16:31:49.434Z,79.33
2017-09-20T16:32:02.227Z,78.71
2017-09-20T16:32:14.504Z,78.75
2017-09-20T16:32:27.930Z,79.3
2017-09-20T16:32:40.777Z,79
2017-09-20T16:32:54.142Z,79.24
2017-09-20T16:33:07.525Z,79.24
2017-09-20T16:33:20.375Z,79.33
2017-09-20T16:33:33.249Z,79.43
2017-09-20T16:33:46.680Z,79.33
2017-09-20T16:34:00.104Z,79.04
2017-09-20T16:34:12.432Z,78.71
2017-09-20T16:34:25.826Z,78.85
2017-09-20T16:34:39.257Z,79
2017-09-20T16:34:52.155Z,78.27
2017-09-20T16:35:05.547Z,77.98
2017-09-20T16:35:18.948Z,78.33
2017-09-20T16:35:31.788Z,78.46
2017-09-20T16:35:45.173Z,78.75
2017-09-20T16:35:58.549Z,78.75
2017-09-20T16:36:11.676Z,78.66
2017-09-20T16:36:24.035Z,78.66
2017-09-20T16:36:37.413Z,78.66
2017-09-20T16:36:50.837Z,79.14
2017-09-20T16:37:04.216Z,79.24
2017-09-20T16:37:17.106Z,79.24
2017-09-20T16:37:30.479Z,79.33
2017-09-20T16:37:43.863Z,78.66
2017-09-20T16:37:56.694Z,79.43
2017-09-20T16:38:09.528Z,79.43
2017-09-20T16:38:22.430Z,78.66
2017-09-20T16:38:34.778Z,78.85
2017-09-20T16:38:48.166Z,77.59
2017-09-20T16:39:01.523Z,77.53
2017-09-20T16:39:14.857Z,77.49
2017-09-20T16:39:27.647Z,77.49
2017-09-20T16:39:40.997Z,78.11
2017-09-20T16:39:54.349Z,78.4
2017-09-20T16:40:06.717Z,78.4
2017-09-20T16:40:19.587Z,78.69
2017-09-20T16:40:33.010Z,78.5
2017-09-20T16:40:45.886Z,77.62
2017-09-20T16:40:59.266Z,77.82
2017-09-20T16:41:11.724Z,77.72
2017-09-20T16:41:23.504Z,77.62
2017-09-20T16:41:36.838Z,77.82
2017-09-20T16:41:49.649Z,77.82
2017-09-20T16:42:02.507Z,77.82
2017-09-20T16:42:15.409Z,77.62
2017-09-20T16:42:28.773Z,77.92
2017-09-20T16:42:40.590Z,77.53
2017-09-20T16:42:54.053Z,77.72
2017-09-20T16:43:07.509Z,77.43
2017-09-20T16:43:20.860Z,77.72
2017-09-20T16:43:33.150Z,77.53
2017-09-20T16:43:45.471Z,77.72
2017-09-20T16:43:58.334Z,77.62
2017-09-20T16:44:10.078Z,77.82
2017-09-20T16:44:22.389Z,77.62
2017-09-20T16:44:34.701Z,77.67
2017-09-20T16:44:48.068Z,77.18
2017-09-20T16:45:01.411Z,76.79
2017-09-20T16:45:13.773Z,76.4
2017-09-20T16:45:26.663Z,76.79
2017-09-20T16:45:39.495Z,76.46
2017-09-20T16:45:52.858Z,75.98
2017-09-20T16:46:05.683Z,75.92
2017-09-20T16:46:18.560Z,75.92
2017-09-20T16:46:31.360Z,76.4
2017-09-20T16:46:43.714Z,76.6
2017-09-20T16:46:57.065Z,75.98
2017-09-20T16:47:10.462Z,75.98
2017-09-20T16:47:23.341Z,75.88
2017-09-20T16:47:36.144Z,76.07
2017-09-20T16:47:49.746Z,75.53
2017-09-20T16:48:03.173Z,75.04
2017-09-20T16:48:16.039Z,74.75
2017-09-20T16:48:29.458Z,74.37
2017-09-20T16:48:42.335Z,74.33
2017-09-20T16:48:55.726Z,73.84
2017-09-20T16:49:08.571Z,74.81
2017-09-20T16:49:21.948Z,74.65
2017-09-20T16:49:35.327Z,74.04
2017-09-20T16:49:48.173Z,73.65
2017-09-20T16:50:01.062Z,73.88
2017-09-20T16:50:13.902Z,74.23
2017-09-20T16:50:27.313Z,74.13
2017-09-20T16:50:40.185Z,75.01
2017-09-20T16:50:53.025Z,75.49
2017-09-20T16:51:05.886Z,75.59
2017-09-20T16:51:18.937Z,76.07
2017-09-20T16:51:31.878Z,75.68
2017-09-20T16:51:44.742Z,75.2
2017-09-20T16:51:57.549Z,75.49
2017-09-20T16:52:10.461Z,75.78
2017-09-20T16:52:23.809Z,75.59
2017-09-20T16:52:36.675Z,76.07
2017-09-20T16:52:49.536Z,75.59
2017-09-20T16:53:02.926Z,75.49
2017-09-20T16:53:15.304Z,75.68
2017-09-20T16:53:28.203Z,75.59
2017-09-20T16:53:41.097Z,74.52
2017-09-20T16:53:53.927Z,74.81
2017-09-20T16:54:06.801Z,74.71
2017-09-20T16:54:19.648Z,75.1
2017-09-20T16:54:33.065Z,75.68
2017-09-20T16:54:46.471Z,75.4
2017-09-20T16:54:59.368Z,75.01
2017-09-20T16:55:12.194Z,75.2
2017-09-20T16:55:25.083Z,75.59
2017-09-20T16:55:38.130Z,76.07
2017-09-20T16:55:50.503Z,75.78
2017-09-20T16:56:03.945Z,76.32
2017-09-20T16:56:17.536Z,76.37
2017-09-20T16:56:30.368Z,75.74
2017-09-20T16:56:43.197Z,75.45
2017-09-20T16:56:56.631Z,74.29
2017-09-20T16:57:09.501Z,73.52
2017-09-20T16:57:22.323Z,73.32
2017-09-20T16:57:35.147Z,73.03
2017-09-20T16:57:48.036Z,74.19
2017-09-20T16:58:00.948Z,74.19
2017-09-20T16:58:13.784Z,75.36
2017-09-20T16:58:27.195Z,76.32
2017-09-20T16:58:40.599Z,77.49
2017-09-20T16:58:53.973Z,77.49
2017-09-20T16:59:07.404Z,77.69
2017-09-20T16:59:20.748Z,78.07
2017-09-20T16:59:34.144Z,78.07
2017-09-20T16:59:47.478Z,78.75
2017-09-20T17:00:00.835Z,78.07
2017-09-20T17:00:13.190Z,78.36
2017-09-20T17:00:26.086Z,78.56
2017-09-20T17:00:39.456Z,78.56
2017-09-20T17:00:52.868Z,78.85
2017-09-20T17:01:05.220Z,78.56
2017-09-20T17:01:18.087Z,78.94
2017-09-20T17:01:30.913Z,78.46
2017-09-20T17:01:44.324Z,78.66
2017-09-20T17:01:57.721Z,77.59
2017-09-20T17:02:11.110Z,77.69
2017-09-20T17:02:23.453Z,77.98
2017-09-20T17:02:35.730Z,77.69
2017-09-20T17:02:49.149Z,77.69
2017-09-20T17:03:02.474Z,78.56
2017-09-20T17:03:15.337Z,78.36
2017-09-20T17:03:28.187Z,78.17
2017-09-20T17:03:41.579Z,77.98
2017-09-20T17:03:54.925Z,77.88
2017-09-20T17:04:08.307Z,77.98
2017-09-20T17:04:21.187Z,77.78
2017-09-20T17:04:34.048Z,77.98
2017-09-20T17:04:46.404Z,77.88
2017-09-20T17:04:58.719Z,77.59
2017-09-20T17:05:12.087Z,77.69
2017-09-20T17:05:25.028Z,77.59
2017-09-20T17:05:37.366Z,77.88
2017-09-20T17:05:50.225Z,77.78
2017-09-20T17:06:03.629Z,77.98
2017-09-20T17:06:16.987Z,78.27
2017-09-20T17:06:30.365Z,78.07
2017-09-20T17:06:43.201Z,78.17
2017-09-20T17:06:56.061Z,77.59
2017-09-20T17:07:08.924Z,77.49
2017-09-20T17:07:22.327Z,77.59
2017-09-20T17:07:35.179Z,78.17
2017-09-20T17:07:48.098Z,78.4
2017-09-20T17:08:00.937Z,77.82
2017-09-20T17:08:14.368Z,78.11
2017-09-20T17:08:27.197Z,77.72
2017-09-20T17:08:40.633Z,77.24
2017-09-20T17:08:53.508Z,76.37
2017-09-20T17:09:06.337Z,76.27
2017-09-20T17:09:19.774Z,76.46
2017-09-20T17:09:32.641Z,76.37
2017-09-20T17:09:45.475Z,76.46
2017-09-20T17:09:58.805Z,76.37
2017-09-20T17:10:12.185Z,76.37
2017-09-20T17:10:25.022Z,76.17
2017-09-20T17:10:38.418Z,76.27
2017-09-20T17:10:51.312Z,76.37
2017-09-20T17:11:04.145Z,76.17
2017-09-20T17:11:17.519Z,76.56
2017-09-20T17:11:29.984Z,76.65
2017-09-20T17:11:42.833Z,76.46
2017-09-20T17:11:55.689Z,76.46
2017-09-20T17:12:08.044Z,75.88
2017-09-20T17:12:21.469Z,75.98
2017-09-20T17:12:33.793Z,76.37
2017-09-20T17:12:46.152Z,76.46
2017-09-20T17:12:59.530Z,76.14
2017-09-20T17:13:12.918Z,76.46
2017-09-20T17:13:26.341Z,76.32
2017-09-20T17:13:38.670Z,76.42
2017-09-20T17:13:50.990Z,76.32
2017-09-20T17:14:03.832Z,75.88
2017-09-20T17:14:16.652Z,75.78
2017-09-20T17:14:28.924Z,75.74
2017-09-20T17:14:41.771Z,75.88
2017-09-20T17:14:55.156Z,76.14
2017-09-20T17:15:08.014Z,76.75
2017-09-20T17:15:20.836Z,76.37
2017-09-20T17:15:34.212Z,76.17
2017-09-20T17:15:47.592Z,76.27
2017-09-20T17:16:00.494Z,76.37
2017-09-20T17:16:13.422Z,76.32
2017-09-20T17:16:27.021Z,76.56
2017-09-20T17:16:40.426Z,76.37
2017-09-20T17:16:53.765Z,77.01
2017-09-20T17:17:07.118Z,77.39
2017-09-20T17:17:20.018Z,77.14
2017-09-20T17:17:32.342Z,77.01
2017-09-20T17:17:45.732Z,76.52
2017-09-20T17:17:59.197Z,77.01
2017-09-20T17:18:12.527Z,77.11
2017-09-20T17:18:25.345Z,77.11
2017-09-20T17:18:38.206Z,77.24
2017-09-20T17:18:51.612Z,76.23
2017-09-20T17:19:05.036Z,76.37
2017-09-20T17:19:18.409Z,76.27
2017-09-20T17:19:30.773Z,76.14
2017-09-20T17:19:44.220Z,76.27
2017-09-20T17:19:56.576Z,75.74
2017-09-20T17:20:08.907Z,76.42
2017-09-20T17:20:22.335Z,76.14
2017-09-20T17:20:35.185Z,76.32
2017-09-20T17:20:47.996Z,76.23
2017-09-20T17:21:01.355Z,76.23
2017-09-20T17:21:14.231Z,76.23
2017-09-20T17:21:27.905Z,76.17
2017-09-20T17:21:40.773Z,75.59
2017-09-20T17:21:53.578Z,75.84
2017-09-20T17:22:06.972Z,75.45
2017-09-20T17:22:19.854Z,75.74
2017-09-20T17:22:32.732Z,75.94
2017-09-20T17:22:45.059Z,75.84
2017-09-20T17:22:58.423Z,76.32
2017-09-20T17:23:11.811Z,76.14
2017-09-20T17:23:25.151Z,76.42
2017-09-20T17:23:38.502Z,76.23
2017-09-20T17:23:51.359Z,76.32
2017-09-20T17:24:04.754Z,75.65
2017-09-20T17:24:16.617Z,76.04
2017-09-20T17:24:29.425Z,76.62
2017-09-20T17:24:41.765Z,76.42
2017-09-20T17:24:54.634Z,75.94
2017-09-20T17:25:08.071Z,75.55
2017-09-20T17:25:20.889Z,75.84
2017-09-20T17:25:33.764Z,76.42
2017-09-20T17:25:47.139Z,76.52
2017-09-20T17:25:59.969Z,76.62
2017-09-20T17:26:12.804Z,76.42
2017-09-20T17:26:26.221Z,76.37
2017-09-20T17:26:39.655Z,76.14
2017-09-20T17:26:51.962Z,76.37
2017-09-20T17:27:04.292Z,76.27
2017-09-20T17:27:17.189Z,76.37
2017-09-20T17:27:30.590Z,76.42
2017-09-20T17:27:43.461Z,75.65
2017-09-20T17:27:56.006Z,75.84
2017-09-20T17:28:08.862Z,75.84
2017-09-20T17:28:22.226Z,75.59
2017-09-20T17:28:35.614Z,75.65
2017-09-20T17:28:47.890Z,75.78
2017-09-20T17:29:00.192Z,75.74
2017-09-20T17:29:13.012Z,76.04
2017-09-20T17:29:26.392Z,75.84
2017-09-20T17:29:39.300Z,75.74
2017-09-20T17:29:52.135Z,75.78
2017-09-20T17:30:04.957Z,75.74
2017-09-20T17:30:17.783Z,76.52
2017-09-20T17:30:29.604Z,76.32
2017-09-20T17:30:42.529Z,76.56
2017-09-20T17:30:55.928Z,75.94
2017-09-20T17:31:08.773Z,75.78
2017-09-20T17:31:21.692Z,75.94
2017-09-20T17:31:35.026Z,75.84
2017-09-20T17:31:47.860Z,76.32
2017-09-20T17:32:01.220Z,76.52
2017-09-20T17:32:13.025Z,76.62
2017-09-20T17:32:25.909Z,76.23
2017-09-20T17:32:39.301Z,76.23
2017-09-20T17:32:52.147Z,75.45
2017-09-20T17:33:04.561Z,75.74
2017-09-20T17:33:17.390Z,75.84
2017-09-20T17:33:29.672Z,75.74
2017-09-20T17:33:42.525Z,76.32
2017-09-20T17:33:54.857Z,76.42
2017-09-20T17:34:08.227Z,76.23
2017-09-20T17:34:21.563Z,76.14
2017-09-20T17:34:34.413Z,76.37
2017-09-20T17:34:47.800Z,76.17
2017-09-20T17:35:00.601Z,76.32
2017-09-20T17:35:13.464Z,76.27
2017-09-20T17:35:25.811Z,76.46
2017-09-20T17:35:38.149Z,76.37
2017-09-20T17:35:53.148Z,76.37
2017-09-20T17:36:06.549Z,76.07
2017-09-20T17:36:19.411Z,75.98
2017-09-20T17:36:32.228Z,75.98
2017-09-20T17:36:45.597Z,75.78
2017-09-20T17:36:58.978Z,75.68
2017-09-20T17:37:12.365Z,75.4
2017-09-20T17:37:25.772Z,75.4
2017-09-20T17:37:39.125Z,75.01
2017-09-20T17:37:52.549Z,75.49
2017-09-20T17:38:04.946Z,75.2
2017-09-20T17:38:17.758Z,75.3
2017-09-20T17:38:30.632Z,75.2
2017-09-20T17:38:43.490Z,75.2
2017-09-20T17:38:56.339Z,75.2
2017-09-20T17:39:08.654Z,75.4
2017-09-20T17:39:21.477Z,75.49
2017-09-20T17:39:33.274Z,75.49
2017-09-20T17:39:45.617Z,75.3
2017-09-20T17:39:59.023Z,75.3
2017-09-20T17:40:12.390Z,75.59
2017-09-20T17:40:25.774Z,75.3
2017-09-20T17:40:39.148Z,75.3
2017-09-20T17:40:52.041Z,75.2